sensor_id;sensor_type;location;lat;lon;timestamp;temperature;humidity
14154;DHT22;7157;53.144;7.570;2022-08-03T00:02:02;21.38;72.16
14154;DHT22;7157;53.144;7.570;2022-08-03T00:12:10;21.22;72.74
14154;DHT22;7157;53.144;7.570;2022-08-03T00:22:12;21.02;73.39
14154;DHT22;7157;53.144;7.570;2022-08-03T00:32:17;20.87;73.96
14154;DHT22;7157;53.144;7.570;2022-08-03T00:42:24;20.70;74.46
14154;DHT22;7157;53.144;7.570;2022-08-03T00:52:30;20.51;75.02
14154;DHT22;7157;53.144;7.570;2022-08-03T01:02:33;20.24;75.67
14154;DHT22;7157;53.144;7.570;2022-08-03T01:12:41;20.15;75.79
14154;DHT22;7157;53.144;7.570;2022-08-03T01:23:02;19.99;76.47
14154;DHT22;7157;53.144;7.570;2022-08-03T01:33:12;19.97;76.54
14154;DHT22;7157;53.144;7.570;2022-08-03T01:43:18;19.94;76.81
14154;DHT22;7157;53.144;7.570;2022-08-03T01:53:43;19.86;77.05
14154;DHT22;7157;53.144;7.570;2022-08-03T02:03:48;19.84;77.10
14154;DHT22;7157;53.144;7.570;2022-08-03T02:14:04;19.69;77.70
14154;DHT22;7157;53.144;7.570;2022-08-03T02:24:07;19.62;77.76
14154;DHT22;7157;53.144;7.570;2022-08-03T02:34:13;19.45;78.14
14154;DHT22;7157;53.144;7.570;2022-08-03T02:44:19;19.40;78.38
14154;DHT22;7157;53.144;7.570;2022-08-03T02:54:25;19.33;78.69
14154;DHT22;7157;53.144;7.570;2022-08-03T03:04:30;19.27;78.94
14154;DHT22;7157;53.144;7.570;2022-08-03T03:14:36;19.10;80.12
14154;DHT22;7157;53.144;7.570;2022-08-03T03:24:40;19.13;80.08
14154;DHT22;7157;53.144;7.570;2022-08-03T03:34:45;19.35;79.03
14154;DHT22;7157;53.144;7.570;2022-08-03T03:44:48;19.33;78.98
14154;DHT22;7157;53.144;7.570;2022-08-03T03:54:52;19.37;78.91
14154;DHT22;7157;53.144;7.570;2022-08-03T04:05:01;19.17;79.55
14154;DHT22;7157;53.144;7.570;2022-08-03T04:15:24;19.22;79.17
14154;DHT22;7157;53.144;7.570;2022-08-03T04:25:30;19.20;79.22
14154;DHT22;7157;53.144;7.570;2022-08-03T04:35:35;19.29;79.08
14154;DHT22;7157;53.144;7.570;2022-08-03T04:45:59;19.41;78.90
14154;DHT22;7157;53.144;7.570;2022-08-03T04:56:07;19.41;79.48
14154;DHT22;7157;53.144;7.570;2022-08-03T05:06:10;19.66;79.50
14154;DHT22;7157;53.144;7.570;2022-08-03T05:16:18;19.83;79.59
14154;DHT22;7157;53.144;7.570;2022-08-03T05:26:20;20.10;79.40
14154;DHT22;7157;53.144;7.570;2022-08-03T05:36:24;20.33;79.98
14154;DHT22;7157;53.144;7.570;2022-08-03T05:46:27;20.59;80.43
14154;DHT22;7157;53.144;7.570;2022-08-03T05:56:31;20.98;79.96
14154;DHT22;7157;53.144;7.570;2022-08-03T06:06:34;21.25;79.91
14154;DHT22;7157;53.144;7.570;2022-08-03T06:16:38;21.57;79.67
14154;DHT22;7157;53.144;7.570;2022-08-03T06:26:41;21.98;78.80
14154;DHT22;7157;53.144;7.570;2022-08-03T06:36:45;22.26;78.57
14154;DHT22;7157;53.144;7.570;2022-08-03T06:46:48;22.40;77.91
14154;DHT22;7157;53.144;7.570;2022-08-03T06:56:53;22.76;77.16
14154;DHT22;7157;53.144;7.570;2022-08-03T07:06:56;22.99;76.60
14154;DHT22;7157;53.144;7.570;2022-08-03T07:17:00;23.23;75.39
14154;DHT22;7157;53.144;7.570;2022-08-03T07:27:12;23.24;75.18
14154;DHT22;7157;53.144;7.570;2022-08-03T07:37:16;23.43;74.91
14154;DHT22;7157;53.144;7.570;2022-08-03T07:47:19;23.61;73.99
14154;DHT22;7157;53.144;7.570;2022-08-03T07:57:24;24.03;72.80
14154;DHT22;7157;53.144;7.570;2022-08-03T08:07:27;24.31;71.77
14154;DHT22;7157;53.144;7.570;2022-08-03T08:17:40;24.25;69.91
14154;DHT22;7157;53.144;7.570;2022-08-03T08:27:44;24.84;69.12
14154;DHT22;7157;53.144;7.570;2022-08-03T08:38:08;25.27;67.07
14154;DHT22;7157;53.144;7.570;2022-08-03T08:48:12;25.59;63.66
14154;DHT22;7157;53.144;7.570;2022-08-03T08:58:18;25.79;62.11
14154;DHT22;7157;53.144;7.570;2022-08-03T09:08:23;26.18;61.74
14154;DHT22;7157;53.144;7.570;2022-08-03T09:18:28;26.57;60.97
14154;DHT22;7157;53.144;7.570;2022-08-03T09:28:34;26.89;59.54
14154;DHT22;7157;53.144;7.570;2022-08-03T09:39:02;27.15;58.08
14154;DHT22;7157;53.144;7.570;2022-08-03T09:49:10;27.37;56.03
14154;DHT22;7157;53.144;7.570;2022-08-03T09:59:24;27.89;54.95
14154;DHT22;7157;53.144;7.570;2022-08-03T10:09:27;28.10;52.87
14154;DHT22;7157;53.144;7.570;2022-08-03T10:19:32;28.43;53.70
14154;DHT22;7157;53.144;7.570;2022-08-03T10:29:37;28.92;51.96
14154;DHT22;7157;53.144;7.570;2022-08-03T10:39:43;28.82;50.34
14154;DHT22;7157;53.144;7.570;2022-08-03T10:49:55;29.07;50.11
14154;DHT22;7157;53.144;7.570;2022-08-03T10:59:59;29.41;49.37
14154;DHT22;7157;53.144;7.570;2022-08-03T11:10:04;29.71;48.28
14154;DHT22;7157;53.144;7.570;2022-08-03T11:20:12;30.37;47.71
14154;DHT22;7157;53.144;7.570;2022-08-03T11:30:22;30.75;45.07
14154;DHT22;7157;53.144;7.570;2022-08-03T11:40:38;35.14;37.61
14154;DHT22;7157;53.144;7.570;2022-08-03T11:50:42;39.25;27.42
14154;DHT22;7157;53.144;7.570;2022-08-03T12:00:47;40.91;23.65
14154;DHT22;7157;53.144;7.570;2022-08-03T12:10:50;40.62;25.40
14154;DHT22;7157;53.144;7.570;2022-08-03T12:21:05;40.35;24.18
14154;DHT22;7157;53.144;7.570;2022-08-03T12:31:08;42.41;21.44
14154;DHT22;7157;53.144;7.570;2022-08-03T12:41:12;42.63;20.78
14154;DHT22;7157;53.144;7.570;2022-08-03T12:51:18;42.13;20.73
14154;DHT22;7157;53.144;7.570;2022-08-03T13:01:22;41.96;20.17
14154;DHT22;7157;53.144;7.570;2022-08-03T13:11:27;37.38;27.34
14154;DHT22;7157;53.144;7.570;2022-08-03T13:21:51;35.88;30.07
14154;DHT22;7157;53.144;7.570;2022-08-03T13:32:05;34.45;30.87
14154;DHT22;7157;53.144;7.570;2022-08-03T13:42:10;34.20;31.43
14154;DHT22;7157;53.144;7.570;2022-08-03T13:52:12;33.94;32.39
14154;DHT22;7157;53.144;7.570;2022-08-03T14:02:16;33.49;32.21
14154;DHT22;7157;53.144;7.570;2022-08-03T14:12:19;33.50;31.95
14154;DHT22;7157;53.144;7.570;2022-08-03T14:22:23;33.48;31.90
14154;DHT22;7157;53.144;7.570;2022-08-03T14:32:26;33.00;32.13
14154;DHT22;7157;53.144;7.570;2022-08-03T14:42:30;33.07;33.65
14154;DHT22;7157;53.144;7.570;2022-08-03T14:52:33;33.17;34.01
14154;DHT22;7157;53.144;7.570;2022-08-03T15:02:37;32.96;33.50
14154;DHT22;7157;53.144;7.570;2022-08-03T15:12:40;32.98;34.25
14154;DHT22;7157;53.144;7.570;2022-08-03T15:22:44;32.89;34.79
14154;DHT22;7157;53.144;7.570;2022-08-03T15:32:47;32.37;33.84
14154;DHT22;7157;53.144;7.570;2022-08-03T15:42:51;32.25;34.39
14154;DHT22;7157;53.144;7.570;2022-08-03T15:52:54;32.44;34.66
14154;DHT22;7157;53.144;7.570;2022-08-03T16:02:58;32.25;35.10
14154;DHT22;7157;53.144;7.570;2022-08-03T16:13:01;31.80;35.53
14154;DHT22;7157;53.144;7.570;2022-08-03T16:23:05;31.59;35.57
14154;DHT22;7157;53.144;7.570;2022-08-03T16:33:14;31.89;37.95
14154;DHT22;7157;53.144;7.570;2022-08-03T16:43:20;31.55;40.60
14154;DHT22;7157;53.144;7.570;2022-08-03T16:53:23;31.40;42.36
14154;DHT22;7157;53.144;7.570;2022-08-03T17:03:48;30.98;43.00
14154;DHT22;7157;53.144;7.570;2022-08-03T17:14:04;30.84;42.90
14154;DHT22;7157;53.144;7.570;2022-08-03T17:24:13;30.52;43.36
14154;DHT22;7157;53.144;7.570;2022-08-03T17:34:20;30.53;43.16
14154;DHT22;7157;53.144;7.570;2022-08-03T17:44:28;30.40;42.45
14154;DHT22;7157;53.144;7.570;2022-08-03T17:54:59;30.00;48.59
14154;DHT22;7157;53.144;7.570;2022-08-03T18:05:26;29.66;52.64
14154;DHT22;7157;53.144;7.570;2022-08-03T18:15:52;29.31;53.84
14154;DHT22;7157;53.144;7.570;2022-08-03T18:25:57;28.72;56.48
14154;DHT22;7157;53.144;7.570;2022-08-03T18:36:02;28.28;56.87
14154;DHT22;7157;53.144;7.570;2022-08-03T18:46:19;27.81;58.44
14154;DHT22;7157;53.144;7.570;2022-08-03T18:56:30;27.06;63.47
14154;DHT22;7157;53.144;7.570;2022-08-03T19:06:41;26.72;64.86
14154;DHT22;7157;53.144;7.570;2022-08-03T19:16:46;26.35;66.45
14154;DHT22;7157;53.144;7.570;2022-08-03T19:26:52;26.11;67.51
14154;DHT22;7157;53.144;7.570;2022-08-03T19:36:56;25.72;68.97
14154;DHT22;7157;53.144;7.570;2022-08-03T19:47:08;25.25;70.68
14154;DHT22;7157;53.144;7.570;2022-08-03T19:57:18;25.01;71.29
14154;DHT22;7157;53.144;7.570;2022-08-03T20:07:25;24.69;72.90
14154;DHT22;7157;53.144;7.570;2022-08-03T20:17:28;24.72;72.46
14154;DHT22;7157;53.144;7.570;2022-08-03T20:27:57;24.64;72.29
14154;DHT22;7157;53.144;7.570;2022-08-03T20:38:13;24.58;73.09
14154;DHT22;7157;53.144;7.570;2022-08-03T20:48:17;24.44;73.31
14154;DHT22;7157;53.144;7.570;2022-08-03T20:58:41;24.27;73.57
14154;DHT22;7157;53.144;7.570;2022-08-03T21:08:56;24.11;74.37
14154;DHT22;7157;53.144;7.570;2022-08-03T21:19:02;23.88;76.08
14154;DHT22;7157;53.144;7.570;2022-08-03T21:29:06;23.66;78.60
14154;DHT22;7157;53.144;7.570;2022-08-03T21:39:10;23.61;79.33
14154;DHT22;7157;53.144;7.570;2022-08-03T21:49:14;23.52;79.39
14154;DHT22;7157;53.144;7.570;2022-08-03T21:59:37;23.41;79.17
14154;DHT22;7157;53.144;7.570;2022-08-03T22:09:45;23.27;79.59
14154;DHT22;7157;53.144;7.570;2022-08-03T22:19:52;23.20;79.57
14154;DHT22;7157;53.144;7.570;2022-08-03T22:29:58;22.94;80.40
14154;DHT22;7157;53.144;7.570;2022-08-03T22:40:05;22.73;80.96
14154;DHT22;7157;53.144;7.570;2022-08-03T22:50:11;22.57;81.49
14154;DHT22;7157;53.144;7.570;2022-08-03T23:00:34;22.52;81.21
14154;DHT22;7157;53.144;7.570;2022-08-03T23:10:39;22.39;81.41
14154;DHT22;7157;53.144;7.570;2022-08-03T23:20:49;22.38;81.25
14154;DHT22;7157;53.144;7.570;2022-08-03T23:30:54;22.26;81.33
14154;DHT22;7157;53.144;7.570;2022-08-03T23:40:59;22.22;81.07
14154;DHT22;7157;53.144;7.570;2022-08-03T23:51:09;22.05;81.74
